Jump to main content.



IN\Recent Actions\ a. Draft Permits from Last 30 Days

Can be sorted descendingEPA Draft Review BeginsFacility NameCan be sorted ascendingPermit TypeCan be sorted ascendingPermit VersionCan be sorted ascendingSIC CodeCan be sorted ascendingPublic Notice BeginsCan be sorted ascending or descendingPermit I.D.Plant I.D.Facility AddressFacility CityCan be sorted ascending
Green ball IconGreen right arrow Icon06/02/2015Rumpke of Indiana, L.L.C.-Medora Sanitary LandfillTitle VRenewal495306/02/2015071-3496200038546 CR 870 WMedora
Green ball Icon05/29/2015Lowes Blacktop & ExcFESOPRenewal295106/01/2015167-35009000538463 Hayne RdTerre Haute
Green ball Icon05/28/2015Globe Industrial LLC/ Globe Industries LLCFESOPNew Source FESOP (Minor PSD/EO) (120)349806/02/2015175-3543200030335 S Voyles RdPekin
Green ball Icon05/28/2015Milestone Contractors, L.P.FESOPRenewal / New Equipment (120)295106/01/2015097-35626000864202 S Harding StIndianapolis
Green ball Icon05/28/2015Modern Forge Indiana LLCSSOANew Source Review (120)346206/01/2015089-35633005848757 Colorade StMerrillville
Green ball Icon05/26/2015Indiana Michigan Power dba AEP- RockportTitle VSig Permit Mod491106/04/2015147-35785000202791 US HWY 231 NRockport
Green ball Icon05/26/2015Four Woods Laminating, Inc.Title VSig Source Mod249906/01/2015087-35716000367640 W 500 STopeka
Green ball Icon05/26/2015Four Woods Laminating, Inc.Title VSig Permit Mod249905/26/2015087-35769000367640 W 500 STopeka
Green ball Icon05/22/2015Countrymark Refining and Logistics LLCTitle VSig Source Mod517105/29/2015055-35558000038249 W SR 54Switz City
Green ball IconGreen right arrow Icon05/22/2015Countrymark Refining and Logistics LLCTitle VRenewal517105/29/2015055-33953000038249 W SR 54Switz City
Green ball Icon05/22/2015Kimball International, Inc.Title VSig Permit Mod252105/29/2015037-35776001001037 E 15th StJasper
Green ball Icon05/22/2015Raybestos PowertrainFESOPRenewal371405/27/2015153-3492500015609 E Chaney St and 110 Industrial ParkSullivan
Green ball Icon05/21/2015Bryan Steam, LLCMSOPRenewal344305/28/2015103-3538400045783 N Chili AvePeru
Green ball Icon05/21/2015Texas Eastern Transmission, LPTitle VSig Permit Mod492205/23/2015053-35749000405163 E 900 SJonesboro
Green ball Icon05/20/2015Geiger & Peters, Inc.FESOPSig Permit Rev344105/23/2015097-3528400135761 S Sherman DrIndianapolis
Green ball Icon05/20/2015Milestone AV Technologies, LLC Da-Lite PlantTitle VSig Permit Mod386105/23/2015085-35162000023100 N Detroit StWarsaw
Green ball Icon05/20/2015Chrome Deposit CorporationMSOPRenewal347105/22/2015127-35493000936640 Melton RdPortage
Green ball Icon05/19/2015Sitran LLCMSOPRenewal449105/27/2015129-356740005510016 Darnell School RdMount Vernon
Green ball Icon05/19/2015Richard L Roudebush VA Medical CenterMSOPNew Construction MSOP (Minor PSD/EO) (12806205/22/2015097-35722007471481 W 10th StIndianapolis
Green ball Icon05/19/2015US Steel - Gary WorksTitle VSig Permit Mod331205/21/2015089-35695001211 N Broadway StGary
Green ball Icon05/19/2015Holsum Of Fort Wayne, Inc.Title VSig Source Mod205105/21/2015091-3405900106800 Boyd BlvdLaPorte
Green ball Icon05/19/2015US Steel - Gary WorksTitle VSig Source Mod331205/21/2015089-35649001211 N Broadway StGary
Green ball IconGreen right arrow Icon05/19/2015Holsum Of Fort Wayne, Inc.Title VRenewal205105/21/2015091-3398800106800 Boyd BlvdLaPorte
Green ball Icon05/19/2015ADM Grain CompanyFESOPSig Permit Rev515305/19/2015163-35707000422350 Broadway AveEvansville
Green ball Icon05/18/2015Anchor Glass Container CorporationTitle VSig Permit Mod322105/21/2015029-3477300007200 W Belleview DrLawrenceburg
Green ball Icon05/18/2015Electronic Recyclers International IncorporatedFESOPSig Permit Rev509305/20/2015063-35580000642540 Airwest BlvdPlainfield
Green ball Icon05/18/2015Decatur Plastic Products Flocking DivisionFESOPSig Permit Rev308905/19/2015079-3548300021655 W Montrow Industrial PkwyNorth Vernon
Green ball Icon05/15/2015Genpak LLCTitle VSig Source Mod308605/30/2015143-3540100016845 S Elm StScottsburg
Green ball Icon05/15/2015Genpak LLCTitle VSig Permit Mod308605/30/2015143-3540800016845 S Elm StScottsburg
Green ball Icon05/15/2015Siemens Healthcare Diagnostics, IncFESOPRenewal283505/18/2015039-35471002423400 Middlebury StElkhart
Green ball Icon05/15/2015ADVICS Manufacturing Indiana, LLCFESOPSig Permit Rev371405/17/2015167-355900013110550 James Adams StTerre Haute
Green ball IconGreen right arrow Icon05/15/2015Elkay Wood Products CompanyTitle VRenewal243405/15/2015099-3531100102515 W Mill StCulver
Green ball Icon05/13/2015Jet Corr, Inc.FESOPTransition from Title V265305/18/2015127-35566000943155 SR 49Valparaiso
Green ball IconGreen right arrow Icon05/13/2015Rolls Royce CorporationTitle VRenewal372405/15/2015097-34658003112001 & 2355 S Tibbs AveIndianapolis
Green ball Icon05/12/2015Harlan BakeriesFESOPRenewal / New Equipment (120)205105/16/2015063-33421000597597 E US Hwy 36Avon
Green ball Icon05/11/2015Rieth-Riley Construction Company, Inc.FESOPSig Permit Rev295105/13/2015039-35503006652500 W Lusher AveElkhart
Green ball Icon05/11/2015SMART LLCTitle VSig Permit Mod243405/13/2015039-357880075070680 CR 23New Paris
Green ball IconGreen right arrow Icon05/11/2015Purdue UniversityTitle VRenewal822105/13/2015157-3516000012401 S Grant St, Freehafer HallWest Lafayette
Green ball Icon05/08/2015Manitex Sabre IncFESOPRenewal344305/21/2015149-35003000265420 E SR 8Knox
Green ball Icon05/08/2015ADM Grain CompanyFESOPRenewal515305/19/2015045-3539100016105 E HarrisonAttica
Green ball IconGreen right arrow Icon05/08/2015Stewart Warner, Former Southwind FacilityTitle VRenewal554105/11/2015097-35345005651514 Drover StIndianapolis
Green ball Icon05/08/2015Hammond Group, Inc.Title VSig Source Mod281905/11/2015089-35686002192308 165th StHammond
Green ball Icon05/08/2015Hammond Group, Inc.Title VSig Permit Mod281905/11/2015089-35765002192308 165th StHammond
Green ball Icon05/08/2015Cargill, Inc.Title VSig Permit Mod204605/11/2015089-35732002031100 Indianapolis BlvdHammond
Green ball Icon05/07/2015Indiana Municipal Power AgencyTitle VSig Permit Mod491105/14/2015177-35622000092000 US 27 SRichmond
Green ball IconGreen right arrow Icon05/07/2015ANR Pipeline Company - Sulphur Springs Compressor StationTitle VRenewal492205/12/2015065-35236000196222 N CR 300 WSulphur Springs
Green ball Icon05/07/2015Advanced Magnesium Alloys Corporation (AMACOR)FESOPTransition from Title V334105/11/2015095-35482001141820 E 32nd StAnderson
Green ball IconBlue right arrow Icon05/07/2015BioTown Ag IncorporatedTitle VNew Source Title V (Minor PSD/EO) (12491105/11/2015181-3512000057402 W 100 NReynolds
Green ball Icon05/06/2015NALC LLCFESOPNew Source FESOP (Minor PSD/EO) (120)142205/09/2015133-35319000478090 SR 243 SCloverdale
Green ball IconGreen right arrow Icon05/06/2015Vixen Composites, LLCTitle VRenewal308905/08/2015039-35121007022965 LaVanture PlaceElkhart


Form name = $$ViewTemplateDefault

Local Navigation



Jump to main content.